createdAt,value
2022-11-14T00:00:45.884Z,99.33
2022-11-14T00:03:14.237Z,148.57
2022-11-14T00:05:43.499Z,78.27
2022-11-14T00:08:16.437Z,79.27
2022-11-14T00:10:46.038Z,84.03
2022-11-14T00:13:14.463Z,104.90
2022-11-14T00:15:43.976Z,172.90
2022-11-14T00:18:12.109Z,91.33
2022-11-14T00:20:40.161Z,145.47
2022-11-14T00:23:08.287Z,143.03
2022-11-14T00:25:36.357Z,157.23
2022-11-14T00:28:04.561Z,85.13
2022-11-14T00:30:32.723Z,68.73
2022-11-14T00:33:02.373Z,101.33
2022-11-14T00:35:30.449Z,73.63
2022-11-14T00:37:58.686Z,100.60
2022-11-14T00:40:29.602Z,128.00
2022-11-14T00:42:57.688Z,67.67
2022-11-14T00:45:25.833Z,72.03
2022-11-14T00:47:53.957Z,85.93
2022-11-14T00:50:23.630Z,136.03
2022-11-14T00:52:51.754Z,120.23
2022-11-14T00:55:19.800Z,121.93
2022-11-14T00:57:47.920Z,82.57
2022-11-14T01:00:16.340Z,80.00
2022-11-14T01:02:44.501Z,85.13
2022-11-14T01:05:12.623Z,69.93
2022-11-14T01:07:42.105Z,91.13
2022-11-14T01:10:11.203Z,71.50
2022-11-14T01:12:39.341Z,117.37
2022-11-14T01:15:08.330Z,72.47
2022-11-14T01:17:36.458Z,85.13
2022-11-14T01:20:05.005Z,53.23
2022-11-14T01:22:33.157Z,78.60
2022-11-14T01:25:02.588Z,51.13
2022-11-14T01:27:32.057Z,83.57
2022-11-14T01:30:00.133Z,76.83
2022-11-14T01:32:28.412Z,100.47
2022-11-14T01:34:56.533Z,98.97
2022-11-14T01:37:24.549Z,78.73
2022-11-14T01:39:52.713Z,110.23
2022-11-14T01:42:26.030Z,96.43
2022-11-14T01:44:55.580Z,112.40
2022-11-14T01:47:25.112Z,51.70
2022-11-14T01:49:54.796Z,107.10
2022-11-14T01:52:24.321Z,146.70
2022-11-14T01:54:53.874Z,56.53
2022-11-14T01:57:25.499Z,75.87
2022-11-14T01:59:54.705Z,67.13
2022-11-14T02:02:25.079Z,64.30
2022-11-14T02:04:54.908Z,93.53
2022-11-14T02:07:23.078Z,101.07
2022-11-14T02:09:51.210Z,80.70
2022-11-14T02:12:19.616Z,82.87
2022-11-14T02:14:50.994Z,92.07
2022-11-14T02:17:34.763Z,165.60
2022-11-14T02:20:16.387Z,83.53
2022-11-14T02:22:44.539Z,90.60
2022-11-14T02:25:12.862Z,69.20
2022-11-14T02:27:41.021Z,144.17
2022-11-14T02:30:11.187Z,101.33
2022-11-14T02:33:08.798Z,104.50
2022-11-14T02:35:28.777Z,153.97
2022-11-14T02:37:56.944Z,62.27
2022-11-14T02:40:24.952Z,87.23
2022-11-14T02:42:53.089Z,135.20
2022-11-14T02:45:21.515Z,100.23
2022-11-14T02:47:49.624Z,118.37
2022-11-14T02:50:18.333Z,78.13
2022-11-14T02:52:47.827Z,167.33
2022-11-14T02:55:16.055Z,83.17
2022-11-14T02:57:44.168Z,115.93
2022-11-14T03:00:15.206Z,98.57
2022-11-14T03:02:43.626Z,55.83
2022-11-14T03:05:11.644Z,97.53
2022-11-14T03:07:39.708Z,66.97
2022-11-14T03:10:10.156Z,55.73
2022-11-14T03:12:38.501Z,130.70
2022-11-14T03:15:07.416Z,58.87
2022-11-14T03:17:35.867Z,112.23
2022-11-14T03:20:04.170Z,107.90
2022-11-14T03:22:32.349Z,125.60
2022-11-14T03:25:00.429Z,128.67
2022-11-14T03:27:29.967Z,169.33
2022-11-14T03:29:59.199Z,117.10
2022-11-14T03:32:27.349Z,65.07
2022-11-14T03:34:55.410Z,64.47
2022-11-14T03:37:23.564Z,103.70
2022-11-14T03:39:51.585Z,141.80
2022-11-14T03:42:19.721Z,116.67
2022-11-14T03:44:49.150Z,96.80
2022-11-14T03:47:17.213Z,64.70
2022-11-14T03:49:45.787Z,133.40
2022-11-14T03:52:13.838Z,91.07
2022-11-14T03:54:41.928Z,79.03
2022-11-14T03:57:10.083Z,54.37
2022-11-14T03:59:38.152Z,61.67
2022-11-14T04:02:07.596Z,73.87
2022-11-14T04:04:35.945Z,46.87
2022-11-14T04:07:04.068Z,114.67
2022-11-14T04:09:32.220Z,52.93
2022-11-14T04:12:00.301Z,66.90
2022-11-14T04:14:28.473Z,69.73
2022-11-14T04:16:56.623Z,57.60
2022-11-14T04:19:26.095Z,37.47
2022-11-14T04:21:54.174Z,58.37
2022-11-14T04:24:22.289Z,94.30
2022-11-14T04:26:50.319Z,90.37
2022-11-14T04:29:18.455Z,59.93
2022-11-14T04:31:46.490Z,60.90
2022-11-14T04:34:14.588Z,103.23
2022-11-14T04:36:44.027Z,60.33
2022-11-14T04:39:12.152Z,67.60
2022-11-14T04:41:40.356Z,83.33
2022-11-14T04:44:08.605Z,38.87
2022-11-14T04:46:36.715Z,99.13
2022-11-14T04:49:04.891Z,69.27
2022-11-14T04:51:32.932Z,80.77
2022-11-14T04:54:02.401Z,70.23
2022-11-14T04:56:30.497Z,39.20
2022-11-14T04:58:58.728Z,37.33
2022-11-14T05:01:26.878Z,54.60
2022-11-14T05:03:55.283Z,72.43
2022-11-14T05:06:23.326Z,47.87
2022-11-14T05:08:51.451Z,89.57
2022-11-14T05:11:25.259Z,52.53
2022-11-14T05:13:56.246Z,70.30
2022-11-14T05:16:24.343Z,61.53
2022-11-14T05:18:54.452Z,73.97
2022-11-14T05:21:22.518Z,80.53
2022-11-14T05:23:50.621Z,73.37
2022-11-14T05:26:20.513Z,42.97
2022-11-14T05:28:48.600Z,38.77
2022-11-14T05:31:17.987Z,36.30
2022-11-14T05:33:46.751Z,63.60
2022-11-14T05:36:16.052Z,93.80
2022-11-14T05:38:44.642Z,114.87
2022-11-14T05:41:13.656Z,96.73
2022-11-14T05:43:43.179Z,59.47
2022-11-14T05:46:11.857Z,63.20
2022-11-14T05:48:40.012Z,39.80
2022-11-14T05:51:08.591Z,59.77
2022-11-14T05:53:36.860Z,38.20
2022-11-14T05:56:05.475Z,46.63
2022-11-14T05:58:33.719Z,60.27
2022-11-14T06:01:06.854Z,120.20
2022-11-14T06:03:35.620Z,31.47
2022-11-14T06:06:03.863Z,39.07
2022-11-14T06:08:32.395Z,44.00
2022-11-14T06:11:03.558Z,69.23
2022-11-14T06:13:31.864Z,59.50
2022-11-14T06:16:01.589Z,12.40
2022-11-14T06:18:31.554Z,63.87
2022-11-14T06:21:00.942Z,179.43
2022-11-14T06:23:29.177Z,47.97
2022-11-14T06:26:00.792Z,41.13
2022-11-14T06:28:29.317Z,41.63
2022-11-14T06:31:00.898Z,53.07
2022-11-14T06:33:30.973Z,50.53
2022-11-14T06:36:00.222Z,44.33
2022-11-14T06:38:28.766Z,45.63
2022-11-14T06:41:03.678Z,38.57
2022-11-14T06:43:34.266Z,61.97
2022-11-14T06:46:02.478Z,37.13
2022-11-14T06:48:32.308Z,54.80
2022-11-14T06:51:00.685Z,37.77
2022-11-14T06:53:29.890Z,43.57
2022-11-14T06:55:58.316Z,47.87
2022-11-14T06:58:27.937Z,47.27
2022-11-14T07:00:56.718Z,60.53
2022-11-14T07:03:24.942Z,70.97
2022-11-14T07:05:54.514Z,67.63
2022-11-14T07:08:22.673Z,36.47
2022-11-14T07:10:50.734Z,43.63
2022-11-14T07:13:18.837Z,106.47
2022-11-14T07:15:52.122Z,56.47
2022-11-14T07:18:20.464Z,44.70
2022-11-14T07:20:48.677Z,37.37
2022-11-14T07:23:22.716Z,40.40
2022-11-14T07:25:51.197Z,49.10
2022-11-14T07:28:19.245Z,44.40
2022-11-14T07:30:47.293Z,61.93
2022-11-14T07:33:15.954Z,44.43
2022-11-14T07:35:43.987Z,41.63
2022-11-14T07:38:12.123Z,46.53
2022-11-14T07:40:41.622Z,64.50
2022-11-14T07:43:09.721Z,43.80
2022-11-14T07:45:37.836Z,96.60
2022-11-14T07:48:06.351Z,68.60
2022-11-14T07:50:34.426Z,51.63
2022-11-14T07:53:02.616Z,46.27
2022-11-14T07:55:30.718Z,41.23
2022-11-14T07:58:02.173Z,40.10
2022-11-14T08:00:30.411Z,60.70
2022-11-14T08:02:58.507Z,37.97
2022-11-14T08:05:26.608Z,46.97
2022-11-14T08:07:55.010Z,54.70
2022-11-14T08:10:23.453Z,69.07
2022-11-14T08:13:17.478Z,82.63
2022-11-14T08:15:48.880Z,33.40
2022-11-14T08:18:17.137Z,42.63
2022-11-14T08:20:45.330Z,40.10
2022-11-14T08:23:13.729Z,42.97
2022-11-14T08:25:42.118Z,61.63
2022-11-14T08:28:10.329Z,35.50
2022-11-14T08:30:38.392Z,76.30
2022-11-14T08:33:08.141Z,54.67
2022-11-14T08:35:36.219Z,59.00
2022-11-14T08:38:04.423Z,74.57
2022-11-14T08:40:33.061Z,40.97
2022-11-14T08:43:02.218Z,45.97
2022-11-14T08:45:30.412Z,35.27
2022-11-14T08:47:58.509Z,91.97
2022-11-14T08:50:27.962Z,47.17
2022-11-14T08:52:56.114Z,50.60
2022-11-14T08:55:24.238Z,43.47
2022-11-14T08:57:52.312Z,36.37
2022-11-14T09:00:21.015Z,33.30
2022-11-14T09:02:49.328Z,37.30
2022-11-14T09:05:17.588Z,42.17
2022-11-14T09:07:47.261Z,35.53
2022-11-14T09:10:16.095Z,29.00
2022-11-14T09:12:44.355Z,33.20
2022-11-14T09:15:12.943Z,33.27
2022-11-14T09:17:41.099Z,29.27
2022-11-14T09:20:09.904Z,35.80
2022-11-14T09:22:38.126Z,29.47
2022-11-14T09:25:09.100Z,28.53
2022-11-14T09:27:37.314Z,29.00
2022-11-14T09:30:06.196Z,33.70
2022-11-14T09:32:34.408Z,23.87
2022-11-14T09:35:02.456Z,29.43
2022-11-14T09:37:30.631Z,28.03
2022-11-14T09:39:58.839Z,28.63
2022-11-14T09:42:51.047Z,29.77
2022-11-14T09:45:19.327Z,26.17
2022-11-14T09:47:49.623Z,31.43
2022-11-14T09:50:24.410Z,31.47
2022-11-14T09:52:55.235Z,28.67
2022-11-14T09:55:24.085Z,36.57
2022-11-14T09:57:53.644Z,42.53
2022-11-14T10:00:22.763Z,31.73
2022-11-14T10:03:00.651Z,28.13
2022-11-14T10:05:43.883Z,30.83
2022-11-14T10:08:22.044Z,30.93
2022-11-14T10:10:53.158Z,28.40
2022-11-14T10:13:39.466Z,28.63
2022-11-14T10:16:12.124Z,27.40
2022-11-14T10:18:55.854Z,25.17
2022-11-14T10:21:34.387Z,24.57
2022-11-14T10:24:06.111Z,21.40
2022-11-14T10:26:34.852Z,25.23
2022-11-14T10:29:30.979Z,27.10
2022-11-14T10:32:01.482Z,26.40
2022-11-14T10:34:31.745Z,29.30
2022-11-14T10:37:03.428Z,28.60
2022-11-14T10:39:32.843Z,27.50
2022-11-14T10:42:07.619Z,27.63
2022-11-14T10:44:41.078Z,29.87
2022-11-14T10:47:13.090Z,28.20
2022-11-14T10:49:41.251Z,25.00
2022-11-14T10:52:13.622Z,25.30
2022-11-14T10:54:43.564Z,22.87
2022-11-14T10:57:16.446Z,28.30
2022-11-14T10:59:45.995Z,27.00
2022-11-14T11:02:14.216Z,28.17
2022-11-14T11:04:42.639Z,31.97
2022-11-14T11:07:36.151Z,29.03
2022-11-14T11:10:22.027Z,29.40
2022-11-14T11:12:51.116Z,28.47
2022-11-14T11:15:22.274Z,28.63
2022-11-14T11:17:55.864Z,32.13
2022-11-14T11:20:27.411Z,32.40
2022-11-14T11:23:03.706Z,28.13
2022-11-14T11:25:33.042Z,29.93
2022-11-14T11:28:13.752Z,29.77
2022-11-14T11:30:55.359Z,32.20
2022-11-14T11:33:24.997Z,35.27
2022-11-14T11:35:55.238Z,34.93
2022-11-14T11:38:23.692Z,31.83
2022-11-14T11:40:53.154Z,31.23
2022-11-14T11:43:43.131Z,33.47
2022-11-14T11:46:17.203Z,34.23
2022-11-14T11:48:45.788Z,34.97
2022-11-14T11:51:15.360Z,34.60
2022-11-14T11:53:45.340Z,30.47
2022-11-14T11:56:14.133Z,30.47
2022-11-14T11:58:44.862Z,31.00
2022-11-14T12:01:14.512Z,28.47
2022-11-14T12:03:43.956Z,27.43
2022-11-14T12:06:15.733Z,30.37
2022-11-14T12:08:49.041Z,30.17
2022-11-14T12:11:19.019Z,29.50
2022-11-14T12:14:26.148Z,28.47
2022-11-14T12:17:13.921Z,29.90
2022-11-14T12:19:49.808Z,33.57
2022-11-14T12:22:39.402Z,33.93
2022-11-14T12:25:27.677Z,36.90
2022-11-14T12:28:04.450Z,38.17
2022-11-14T12:30:32.852Z,31.50
2022-11-14T12:33:03.297Z,31.00
2022-11-14T12:35:32.546Z,27.87
2022-11-14T12:38:01.001Z,28.50
2022-11-14T12:40:30.495Z,30.13
2022-11-14T12:42:58.732Z,30.33
2022-11-14T12:45:57.643Z,29.93
2022-11-14T12:48:35.379Z,29.40
2022-11-14T12:51:04.005Z,30.47
2022-11-14T12:53:42.315Z,30.13
2022-11-14T12:56:31.581Z,29.63
2022-11-14T12:59:23.312Z,30.27
2022-11-14T13:01:59.136Z,30.03
2022-11-14T13:04:34.758Z,29.53
2022-11-14T13:07:15.357Z,31.53
2022-11-14T13:09:55.833Z,36.83
2022-11-14T13:12:48.720Z,36.27
2022-11-14T13:15:48.605Z,35.60
2022-11-14T13:18:39.605Z,36.53
2022-11-14T13:21:38.611Z,36.80
2022-11-14T13:24:09.280Z,35.60
2022-11-14T13:26:52.498Z,36.13
2022-11-14T13:30:00.094Z,33.03
2022-11-14T13:33:05.085Z,31.40
2022-11-14T13:35:53.088Z,33.50
2022-11-14T13:39:03.289Z,37.27
2022-11-14T13:41:53.289Z,33.80
2022-11-14T13:44:38.175Z,35.33
2022-11-14T13:47:14.590Z,35.97
2022-11-14T13:49:58.475Z,40.37
2022-11-14T13:52:27.143Z,37.00
2022-11-14T13:54:55.181Z,35.87
2022-11-14T13:57:28.289Z,35.90
2022-11-14T14:00:02.180Z,38.80
2022-11-14T14:02:46.202Z,35.23
2022-11-14T14:05:28.253Z,35.50
2022-11-14T14:08:06.492Z,36.13
2022-11-14T14:10:37.153Z,34.73
2022-11-14T14:13:15.240Z,33.00
2022-11-14T14:15:46.791Z,35.83
2022-11-14T14:18:22.305Z,33.77
2022-11-14T14:20:53.779Z,35.77
2022-11-14T14:23:27.526Z,33.83
2022-11-14T14:26:00.063Z,34.43
2022-11-14T14:28:36.504Z,35.83
2022-11-14T14:31:06.105Z,34.23
2022-11-14T14:33:41.688Z,36.80
2022-11-14T14:36:20.411Z,37.47
2022-11-14T14:38:48.715Z,41.33
2022-11-14T14:41:18.294Z,37.23
2022-11-14T14:43:53.309Z,37.63
2022-11-14T14:46:31.836Z,35.67
2022-11-14T14:49:00.281Z,37.90
2022-11-14T14:51:32.483Z,39.47
2022-11-14T14:54:00.590Z,40.33
2022-11-14T14:56:29.026Z,38.47
2022-11-14T14:58:58.582Z,38.90
2022-11-14T15:01:29.622Z,48.20
2022-11-14T15:03:59.149Z,40.20
2022-11-14T15:06:31.298Z,40.73
2022-11-14T15:08:59.461Z,38.17
2022-11-14T15:11:32.347Z,41.63
2022-11-14T15:14:02.646Z,39.93
2022-11-14T15:16:30.858Z,41.33
2022-11-14T15:18:58.974Z,43.03
2022-11-14T15:21:28.541Z,42.50
2022-11-14T15:24:00.566Z,44.87
2022-11-14T15:26:28.714Z,44.17
2022-11-14T15:29:06.719Z,47.23
2022-11-14T15:31:35.126Z,48.67
2022-11-14T15:34:04.992Z,44.27
2022-11-14T15:36:33.255Z,44.60
2022-11-14T15:39:02.860Z,47.83
2022-11-14T15:41:31.531Z,47.30
2022-11-14T15:44:05.794Z,46.50
2022-11-14T15:46:46.939Z,43.77
2022-11-14T15:49:22.463Z,49.03
2022-11-14T15:51:52.103Z,49.83
2022-11-14T15:54:27.994Z,43.90
2022-11-14T15:56:57.059Z,51.90
2022-11-14T15:59:25.198Z,49.93
2022-11-14T16:01:57.792Z,42.17
2022-11-14T16:04:27.450Z,47.47
2022-11-14T16:06:55.681Z,43.50
2022-11-14T16:09:23.793Z,42.17
2022-11-14T16:11:52.070Z,43.77
2022-11-14T16:14:20.160Z,45.20
2022-11-14T16:16:48.195Z,40.67
2022-11-14T16:19:18.021Z,48.63
2022-11-14T16:21:46.187Z,45.43
2022-11-14T16:24:17.176Z,47.77
2022-11-14T16:26:45.509Z,44.20
2022-11-14T16:29:13.623Z,45.53
2022-11-14T16:31:41.811Z,46.87
2022-11-14T16:34:13.617Z,40.37
2022-11-14T16:36:45.310Z,37.30
2022-11-14T16:39:13.725Z,35.97
2022-11-14T16:41:41.870Z,36.80
2022-11-14T16:44:13.973Z,38.37
2022-11-14T16:46:42.102Z,36.27
2022-11-14T16:49:12.507Z,36.23
2022-11-14T16:51:50.495Z,38.03
2022-11-14T16:54:20.986Z,39.43
2022-11-14T16:56:49.132Z,38.20
2022-11-14T16:59:17.294Z,40.37
2022-11-14T17:01:46.136Z,45.50
2022-11-14T17:04:14.321Z,44.30
2022-11-14T17:06:43.918Z,39.00
2022-11-14T17:09:13.337Z,42.67
2022-11-14T17:11:41.623Z,41.60
2022-11-14T17:14:09.764Z,42.00
2022-11-14T17:16:38.098Z,44.47
2022-11-14T17:19:06.291Z,49.57
2022-11-14T17:21:34.446Z,45.63
2022-11-14T17:24:03.973Z,49.43
2022-11-14T17:26:32.113Z,49.13
2022-11-14T17:29:00.321Z,51.03
2022-11-14T17:31:29.837Z,48.30
2022-11-14T17:34:01.228Z,51.77
2022-11-14T17:36:30.126Z,50.53
2022-11-14T17:38:58.688Z,49.27
2022-11-14T17:41:29.130Z,54.90
2022-11-14T17:43:59.059Z,51.37
2022-11-14T17:46:27.152Z,51.87
2022-11-14T17:48:55.352Z,48.83
2022-11-14T17:51:23.515Z,48.77
2022-11-14T17:53:51.588Z,48.53
2022-11-14T17:56:21.266Z,51.33
2022-11-14T17:58:51.530Z,54.47
2022-11-14T18:01:21.346Z,58.30
2022-11-14T18:03:49.593Z,49.70
2022-11-14T18:06:19.226Z,61.67
2022-11-14T18:08:47.602Z,73.47
2022-11-14T18:11:16.623Z,62.83
2022-11-14T18:13:44.864Z,66.07
2022-11-14T18:16:14.956Z,67.60
2022-11-14T18:18:43.095Z,81.53
2022-11-14T18:21:11.414Z,72.30
2022-11-14T18:23:39.851Z,55.40
2022-11-14T18:26:11.838Z,69.80
2022-11-14T18:28:39.994Z,64.67
2022-11-14T18:31:10.838Z,64.50
2022-11-14T18:33:40.913Z,90.90
2022-11-14T18:36:11.518Z,64.13
2022-11-14T18:38:39.658Z,82.93
2022-11-14T18:41:09.176Z,61.90
2022-11-14T18:43:37.362Z,68.90
2022-11-14T18:46:06.912Z,63.63
2022-11-14T18:48:35.339Z,64.60
2022-11-14T18:51:05.074Z,81.80
2022-11-14T18:53:33.762Z,64.33
2022-11-14T18:56:05.018Z,71.17
2022-11-14T18:58:33.276Z,72.03
2022-11-14T19:01:08.807Z,64.70
2022-11-14T19:03:36.946Z,85.93
2022-11-14T19:06:06.783Z,64.50
2022-11-14T19:08:34.907Z,64.17
2022-11-14T19:11:03.046Z,74.03
2022-11-14T19:13:31.397Z,69.83
2022-11-14T19:16:02.846Z,84.97
2022-11-14T19:18:31.454Z,95.23
2022-11-14T19:21:00.101Z,92.87
2022-11-14T19:23:30.229Z,79.37
2022-11-14T19:26:00.788Z,76.73
2022-11-14T19:28:29.370Z,66.40
2022-11-14T19:31:02.118Z,76.60
2022-11-14T19:33:30.741Z,79.17
2022-11-14T19:35:59.129Z,133.00
2022-11-14T19:38:27.410Z,81.57
2022-11-14T19:41:00.812Z,70.80
2022-11-14T19:43:32.080Z,69.30
2022-11-14T19:46:02.315Z,86.40
2022-11-14T19:48:30.646Z,87.33
2022-11-14T19:51:02.879Z,75.90
2022-11-14T19:53:31.627Z,104.07
2022-11-14T19:56:01.963Z,63.70
2022-11-14T19:58:30.354Z,92.10
2022-11-14T20:01:02.571Z,69.00
2022-11-14T20:03:31.109Z,90.43
2022-11-14T20:06:00.928Z,117.27
2022-11-14T20:08:29.271Z,70.67
2022-11-14T20:10:58.849Z,159.83
2022-11-14T20:13:30.750Z,74.97
2022-11-14T20:16:00.081Z,137.90
2022-11-14T20:18:30.078Z,117.23
2022-11-14T20:20:58.587Z,79.93
2022-11-14T20:23:27.806Z,115.53
2022-11-14T20:25:57.277Z,141.30
2022-11-14T20:28:25.648Z,110.00
2022-11-14T20:30:55.343Z,133.20
2022-11-14T20:33:23.608Z,104.23
2022-11-14T20:35:51.851Z,167.17
2022-11-14T20:38:20.154Z,112.73
2022-11-14T20:40:54.954Z,81.23
2022-11-14T20:43:23.201Z,87.90
2022-11-14T20:45:59.798Z,77.80
2022-11-14T20:48:28.462Z,70.60
2022-11-14T20:51:03.670Z,76.87
2022-11-14T20:53:32.290Z,106.37
2022-11-14T20:56:01.031Z,92.97
2022-11-14T20:58:29.467Z,76.50
2022-11-14T21:00:59.099Z,95.13
2022-11-14T21:03:27.730Z,58.40
2022-11-14T21:05:56.201Z,132.50
2022-11-14T21:08:24.347Z,52.37
2022-11-14T21:10:57.560Z,86.87
2022-11-14T21:13:43.113Z,73.13
2022-11-14T21:16:13.525Z,81.33
2022-11-14T21:18:43.944Z,75.63
2022-11-14T21:21:17.041Z,77.13
2022-11-14T21:23:45.264Z,65.47
2022-11-14T21:26:14.127Z,87.03
2022-11-14T21:28:43.101Z,90.07
2022-11-14T21:31:17.020Z,78.80
2022-11-14T21:33:45.288Z,64.20
2022-11-14T21:36:43.197Z,87.87
2022-11-14T21:39:02.410Z,161.27
2022-11-14T21:41:31.042Z,94.30
2022-11-14T21:43:59.970Z,98.20
2022-11-14T21:46:29.495Z,97.20
2022-11-14T21:48:57.728Z,54.33
2022-11-14T21:51:26.575Z,56.13
2022-11-14T21:53:55.383Z,87.63
2022-11-14T21:56:24.414Z,66.60
2022-11-14T21:59:12.516Z,67.30
2022-11-14T22:02:00.157Z,73.23
2022-11-14T22:04:28.526Z,79.43
2022-11-14T22:06:56.633Z,95.13
2022-11-14T22:09:24.912Z,131.57
2022-11-14T22:11:53.013Z,65.13
2022-11-14T22:14:21.262Z,71.07
2022-11-14T22:16:50.753Z,123.00
2022-11-14T22:19:19.065Z,79.27
2022-11-14T22:21:47.296Z,94.70
2022-11-14T22:24:15.476Z,89.23
2022-11-14T22:26:43.586Z,78.90
2022-11-14T22:29:11.763Z,73.43
2022-11-14T22:31:39.883Z,65.23
2022-11-14T22:34:09.367Z,80.73
2022-11-14T22:36:37.504Z,64.00
2022-11-14T22:39:06.059Z,98.40
2022-11-14T22:41:34.217Z,125.20
2022-11-14T22:44:02.446Z,139.20
2022-11-14T22:46:30.538Z,110.23
2022-11-14T22:48:58.822Z,99.83
2022-11-14T22:51:28.760Z,167.50
2022-11-14T22:53:58.322Z,235.47
2022-11-14T22:56:27.412Z,134.90
2022-11-14T22:58:55.612Z,164.00
2022-11-14T23:01:25.131Z,103.60
2022-11-14T23:03:55.057Z,105.70
2022-11-14T23:06:23.240Z,159.10
2022-11-14T23:08:52.829Z,106.47
2022-11-14T23:11:21.861Z,91.70
2022-11-14T23:13:50.655Z,101.57
2022-11-14T23:16:19.426Z,68.70
2022-11-14T23:18:47.558Z,100.63
2022-11-14T23:21:16.715Z,82.37
2022-11-14T23:23:44.839Z,93.20
2022-11-14T23:26:15.279Z,83.13
2022-11-14T23:28:43.592Z,93.13
2022-11-14T23:31:12.121Z,94.07
2022-11-14T23:33:40.333Z,53.27
2022-11-14T23:36:08.781Z,114.03
2022-11-14T23:38:36.972Z,139.53
2022-11-14T23:41:05.232Z,90.57
2022-11-14T23:43:35.031Z,215.93
2022-11-14T23:46:03.180Z,167.20
2022-11-14T23:48:31.270Z,144.53
2022-11-14T23:50:59.343Z,133.30
2022-11-14T23:53:27.491Z,102.30
2022-11-14T23:55:55.768Z,38.50
2022-11-14T23:58:24.177Z,134.80
